Terminal Aerodrome Forecast
Issued by NWS

Home | Current Version | Previous Version | Text Only | Print | Product List | Glossary On
Versions: 1 2 3 4 5 6 7 8 9 10 11 12 13 14 15 16 17 18 19 20 21
000
FTUS41 KGYX 031120
TAFAUG
TAF
KAUG 031120Z 0312/0412 VRB03KT 3SM BR OVC003
      TEMPO 0312/0313 1/4SM FG VV002
     FM031330 18006KT P6SM SCT060
     FM040400 VRB03KT 2SM BR BKN004=

USA.gov is the U.S. government's official web portal to all federal, state and local government web resources and services.